Departure
Bahrain International Airport
Manama, BH
cloud Weather
- Wind
- 330° / 17 kt
- Visibility
- 6 SM
- Ceiling
- CAVOK
- Temp / Dew
- 37°C / 25°C
- Altimeter
- 29.59 inHg
Obs: 2026-09-01T04:00:00.000Z
Raw METAR
METAR OBBI 010400Z 33017KT CAVOK 37/25 Q1002 NOSIG
flight_takeoff Flight
Operated by Jazeera Airways
| Date | Aircraft | Route | Takeoff | Landing | Duration | Dep Δ | Arr Δ |
|---|---|---|---|---|---|---|---|
| 2026-07-25 | 706135 | BAH → KWI | Jul 25, 22:45 UTC | Jul 26, 14:15 UTC | 15h 31m | - | - |
| 2026-07-25 | 706132 | BAH → KWI | Jul 25, 08:55 UTC | Jul 25, 14:10 UTC | 5h 15m | - | - |
| 2026-07-24 | 70620D | BAH → KWI | Jul 24, 09:55 UTC | Jul 24, 14:30 UTC | 4h 35m | - | - |
| 2026-07-23 | 706134 | BAH → KWI | Jul 23, 09:35 UTC | Jul 23, 14:10 UTC | 4h 35m | - | - |
| 2026-07-22 | 706134 | BAH → KWI | Jul 22, 13:45 UTC | Jul 22, 14:45 UTC | 1h 0m | - | - |
| 2026-07-21 | 706134 | BAH → KWI | Jul 21, 16:20 UTC | Jul 22, 14:45 UTC | 22h 25m | - | - |
| 2026-07-21 | 706134 | BAH → KWI | Jul 21, 13:20 UTC | Jul 21, 14:15 UTC | 55m | - | - |
| 2026-07-20 | 70620F | BAH → KWI | Jul 20, 13:10 UTC | Jul 20, 14:20 UTC | 1h 10m | - | - |
| 2026-07-19 | 70620C | - | Jul 19, 09:30 UTC | Jul 19, 14:25 UTC | 4h 55m | - | - |
| 2026-07-17 | 706134 | - | Jul 17, 23:05 UTC | Jul 18, 18:05 UTC | 19h 1m | - | - |
| 2026-07-17 | 706134 | - | Jul 17, 22:35 UTC | Jul 18, 18:05 UTC | 19h 31m | - | - |
| 2026-07-17 | 70620A | - | Jul 17, 10:10 UTC | Jul 17, 14:30 UTC | 4h 20m | - | - |
| 2026-07-15 | 706210 | - | Jul 15, 13:10 UTC | Jul 15, 14:05 UTC | 55m | - | - |
| 2026-07-13 | 70620C | - | Jul 13, 22:40 UTC | Jul 14, 14:10 UTC | 15h 30m | - | - |
| 2026-07-13 | 706137 | - | Jul 13, 09:45 UTC | Jul 13, 14:25 UTC | 4h 40m | - | - |
| 2026-07-12 | 706202 | - | Jul 12, 14:35 UTC | Jul 12, 15:40 UTC | 1h 5m | - | - |
| 2026-07-09 | 706134 | - | Jul 9, 15:10 UTC | Jul 9, 16:05 UTC | 55m | - | - |
| 2026-07-08 | 70620D | - | Jul 8, 13:15 UTC | Jul 8, 14:10 UTC | 55m | - | - |
| 2026-07-07 | 706202 | ADJ → DXB | Jul 7, 09:30 UTC | Jul 7, 14:15 UTC | 4h 45m | - | - |
| 2026-07-05 | 70620C | - | Jul 5, 23:15 UTC | Jul 6, 14:05 UTC | 14h 50m | - | - |
| 2026-07-05 | 70620C | - | Jul 5, 13:10 UTC | Jul 5, 14:15 UTC | 1h 5m | - | - |
| 2026-07-03 | 70620A | - | Jul 3, 22:55 UTC | Jul 4, 14:10 UTC | 15h 15m | - | - |
| 2026-07-03 | 70620D | - | Jul 3, 13:05 UTC | Jul 3, 14:10 UTC | 1h 5m | - | - |
| 2026-07-02 | 70620F | - | Jul 2, 10:35 UTC | Jul 2, 14:25 UTC | 3h 50m | - | - |
| 2026-07-01 | 70612C | BAH → KWI | Jul 1, 13:10 UTC | Jul 1, 14:05 UTC | 55m | - | - |
| 2026-06-30 | 70620E | BAH → KWI | Jun 30, 13:15 UTC | Jun 30, 14:15 UTC | 1h 0m | - | - |
| 2026-06-28 | 706133 | BAH → KWI | Jun 28, 23:14 UTC | Jun 29, 13:44 UTC | 14h 30m | - | - |
| 2026-06-28 | 706136 | BAH → KWI | Jun 28, 12:55 UTC | Jun 28, 13:55 UTC | 1h 0m | - | - |
| 2026-06-27 | 706136 | BAH → KWI | Jun 27, 13:35 UTC | Jun 28, 13:29 UTC | 23h 55m | - | - |
| 2026-06-27 | 70620C | BAH → KWI | Jun 27, 12:50 UTC | Jun 27, 13:55 UTC | 1h 5m | - | - |
| Month | Flights tracked |
|---|---|
| July 2026 | 25 |
| June 2026 | 28 |
| May 2026 | 2 |